createdAt,value
2018-07-13T00:00:22.655Z,13.50
2018-07-13T00:05:20.252Z,13.40
2018-07-13T00:10:17.750Z,13.30
2018-07-13T00:12:46.991Z,13.20
2018-07-13T00:15:15.969Z,13.20
2018-07-13T00:17:44.943Z,13.20
2018-07-13T00:20:13.953Z,13.20
2018-07-13T00:22:42.944Z,13.20
2018-07-13T00:25:11.884Z,13.20
2018-07-13T00:27:40.866Z,13.20
2018-07-13T00:30:09.857Z,13.20
2018-07-13T00:32:38.815Z,13.30
2018-07-13T00:35:07.873Z,13.40
2018-07-13T00:37:36.936Z,13.40
2018-07-13T00:40:05.981Z,13.40
2018-07-13T00:42:34.922Z,13.50
2018-07-13T00:45:03.893Z,13.40
2018-07-13T00:50:01.340Z,13.20
2018-07-13T00:52:30.313Z,13.10
2018-07-13T00:54:59.230Z,13.00
2018-07-13T00:57:28.313Z,12.90
2018-07-13T00:59:57.321Z,12.90
2018-07-13T01:04:56.005Z,12.80
2018-07-13T01:07:24.939Z,12.80
2018-07-13T01:09:54.193Z,12.80
2018-07-13T01:12:23.147Z,12.90
2018-07-13T01:14:52.122Z,12.80
2018-07-13T01:17:24.041Z,12.80
2018-07-13T01:19:53.396Z,12.80
2018-07-13T01:22:22.366Z,12.70
2018-07-13T01:24:51.332Z,12.70
2018-07-13T01:27:20.324Z,12.70
2018-07-13T01:29:49.296Z,12.70
2018-07-13T01:32:18.276Z,12.60
2018-07-13T01:34:47.832Z,12.60
2018-07-13T01:37:17.708Z,12.60
2018-07-13T01:39:46.678Z,12.50
2018-07-13T01:42:15.619Z,12.50
2018-07-13T01:47:13.076Z,12.50
2018-07-13T01:49:42.029Z,12.50
2018-07-13T01:52:11.018Z,12.50
2018-07-13T01:54:39.997Z,12.60
2018-07-13T01:57:08.946Z,12.50
2018-07-13T02:02:06.678Z,12.40
2018-07-13T02:04:35.749Z,12.40
2018-07-13T02:07:04.737Z,12.40
2018-07-13T02:09:33.726Z,12.40
2018-07-13T02:12:02.758Z,12.30
2018-07-13T02:14:31.729Z,12.30
2018-07-13T02:17:00.720Z,12.30
2018-07-13T02:19:29.649Z,12.30
2018-07-13T02:24:27.118Z,12.30
2018-07-13T02:26:56.083Z,12.30
2018-07-13T02:29:25.062Z,12.20
2018-07-13T02:31:54.076Z,12.20
2018-07-13T02:34:23.059Z,12.20
2018-07-13T02:36:52.010Z,12.20
2018-07-13T02:39:20.974Z,12.20
2018-07-13T02:44:18.485Z,12.10
2018-07-13T02:46:47.464Z,12.10
2018-07-13T02:49:16.414Z,12.10
2018-07-13T02:51:45.374Z,12.10
2018-07-13T02:54:14.428Z,12.10
2018-07-13T02:56:43.425Z,12.10
2018-07-13T02:59:12.384Z,12.10
2018-07-13T03:01:41.377Z,12.10
2018-07-13T03:04:10.461Z,12.10
2018-07-13T03:06:39.407Z,12.20
2018-07-13T03:09:10.542Z,12.20
2018-07-13T03:11:39.529Z,12.20
2018-07-13T03:14:09.023Z,12.20
2018-07-13T03:16:39.114Z,12.20
2018-07-13T03:19:08.532Z,12.20
2018-07-13T03:21:37.467Z,12.20
2018-07-13T03:24:06.469Z,12.20
2018-07-13T03:26:35.427Z,12.10
2018-07-13T03:29:04.434Z,12.10
2018-07-13T03:31:33.465Z,12.10
2018-07-13T03:34:02.674Z,12.10
2018-07-13T03:36:31.640Z,12.10
2018-07-13T03:39:00.660Z,12.10
2018-07-13T03:43:58.123Z,12.20
2018-07-13T03:48:55.593Z,12.20
2018-07-13T03:51:24.577Z,12.30
2018-07-13T03:53:53.551Z,12.30
2018-07-13T03:56:22.553Z,12.30
2018-07-13T03:58:51.620Z,12.40
2018-07-13T04:01:20.548Z,12.40
2018-07-13T04:03:50.579Z,12.40
2018-07-13T04:06:19.586Z,12.40
2018-07-13T04:08:48.605Z,12.50
2018-07-13T04:11:17.679Z,12.50
2018-07-13T04:13:46.635Z,12.60
2018-07-13T04:16:15.636Z,12.60
2018-07-13T04:18:44.590Z,12.60
2018-07-13T04:21:13.664Z,12.60
2018-07-13T04:23:42.763Z,12.60
2018-07-13T04:26:11.810Z,12.60
2018-07-13T04:28:40.968Z,12.70
2018-07-13T04:31:10.029Z,12.70
2018-07-13T04:33:38.989Z,12.70
2018-07-13T04:36:07.990Z,12.80
2018-07-13T04:38:37.067Z,12.80
2018-07-13T04:43:35.380Z,13.00
2018-07-13T04:46:04.959Z,13.10
2018-07-13T04:51:03.153Z,13.30
2018-07-13T04:56:00.828Z,13.50
2018-07-13T05:00:58.417Z,13.70
2018-07-13T05:03:27.533Z,13.80
2018-07-13T05:05:56.607Z,14.00
2018-07-13T05:08:25.651Z,14.10
2018-07-13T05:10:54.697Z,14.30
2018-07-13T05:13:23.786Z,14.50
2018-07-13T05:15:52.907Z,14.70
2018-07-13T05:18:21.956Z,14.90
2018-07-13T05:20:50.925Z,15.20
2018-07-13T05:23:20.049Z,15.40
2018-07-13T05:25:49.136Z,15.50
2018-07-13T05:33:15.632Z,16.30
2018-07-13T05:35:44.707Z,16.60
2018-07-13T05:38:13.803Z,17.00
2018-07-13T05:40:42.908Z,17.30
2018-07-13T05:43:12.045Z,17.60
2018-07-13T05:45:41.172Z,18.00
2018-07-13T05:48:10.744Z,18.40
2018-07-13T05:50:39.860Z,18.80
2018-07-13T05:53:09.163Z,19.10
2018-07-13T06:00:37.153Z,19.80
2018-07-13T06:03:06.257Z,20.10
2018-07-13T06:05:35.618Z,20.10
2018-07-13T06:08:05.100Z,20.20
2018-07-13T06:10:34.156Z,20.40
2018-07-13T06:18:01.261Z,20.90
2018-07-13T06:20:30.320Z,21.00
2018-07-13T06:25:28.055Z,21.40
2018-07-13T06:27:57.089Z,21.50
2018-07-13T06:32:54.615Z,21.50
2018-07-13T06:35:23.877Z,21.70
2018-07-13T06:37:53.629Z,22.00
2018-07-13T06:40:22.965Z,22.20
2018-07-13T06:45:20.940Z,22.40
2018-07-13T06:47:49.992Z,22.50
2018-07-13T06:50:19.143Z,22.30
2018-07-13T06:52:48.385Z,22.50
2018-07-13T06:55:18.064Z,22.60
2018-07-13T06:57:57.944Z,22.90
2018-07-13T07:01:07.897Z,23.10
2018-07-13T07:04:50.964Z,23.30
2018-07-13T07:09:56.621Z,23.20
2018-07-13T07:13:32.041Z,23.20
2018-07-13T07:16:01.593Z,23.10
2018-07-13T07:18:30.810Z,23.00
2018-07-13T07:20:59.990Z,23.10
2018-07-13T07:23:29.795Z,23.40
2018-07-13T07:28:28.741Z,23.50
2018-07-13T07:30:58.410Z,23.80
2018-07-13T07:33:27.794Z,24.00
2018-07-13T07:35:56.852Z,24.30
2018-07-13T07:38:26.010Z,24.30
2018-07-13T07:40:55.121Z,24.20
2018-07-13T07:43:24.160Z,24.30
2018-07-13T07:45:53.615Z,24.70
2018-07-13T07:48:22.623Z,24.80
2018-07-13T07:50:51.617Z,24.30
2018-07-13T07:55:49.148Z,24.30
2018-07-13T07:58:18.180Z,24.10
2018-07-13T08:00:47.144Z,24.20
2018-07-13T08:03:16.181Z,24.50
2018-07-13T08:05:46.599Z,24.70
2018-07-13T08:08:15.769Z,24.90
2018-07-13T08:10:44.673Z,25.10
2018-07-13T08:13:14.587Z,25.10
2018-07-13T08:15:43.796Z,25.00
2018-07-13T08:18:12.808Z,25.00
2018-07-13T08:20:45.353Z,24.90
2018-07-13T08:23:14.496Z,24.70
2018-07-13T08:28:14.689Z,24.80
2018-07-13T08:30:45.722Z,24.60
2018-07-13T08:33:14.945Z,24.40
2018-07-13T08:35:44.188Z,24.50
2018-07-13T08:38:13.186Z,24.50
2018-07-13T08:40:42.526Z,24.50
2018-07-13T08:43:11.607Z,24.30
2018-07-13T08:45:40.995Z,24.00
2018-07-13T08:48:10.130Z,24.10
2018-07-13T08:53:08.080Z,24.30
2018-07-13T08:55:37.246Z,24.70
2018-07-13T08:58:06.598Z,25.00
2018-07-13T09:00:35.889Z,25.30
2018-07-13T09:03:05.178Z,25.70
2018-07-13T09:05:34.256Z,25.90
2018-07-13T09:08:03.472Z,26.00
2018-07-13T09:10:33.577Z,25.90
2018-07-13T09:13:02.736Z,25.90
2018-07-13T09:15:31.704Z,25.80
2018-07-13T09:18:00.876Z,25.50
2018-07-13T09:20:30.325Z,25.40
2018-07-13T09:22:59.793Z,25.50
2018-07-13T09:25:30.618Z,25.50
2018-07-13T09:27:59.690Z,25.60
2018-07-13T09:30:28.780Z,25.90
2018-07-13T09:32:57.764Z,26.30
2018-07-13T09:35:26.737Z,26.40
2018-07-13T09:37:56.029Z,26.60
2018-07-13T09:40:25.196Z,26.70
2018-07-13T09:45:22.777Z,26.60
2018-07-13T09:47:51.731Z,26.60
2018-07-13T09:50:21.327Z,26.50
2018-07-13T09:52:50.961Z,26.40
2018-07-13T09:55:20.534Z,26.30
2018-07-13T09:57:49.616Z,25.90
2018-07-13T10:00:18.912Z,25.30
2018-07-13T10:02:47.968Z,24.70
2018-07-13T10:07:45.557Z,23.90
2018-07-13T10:10:14.612Z,23.60
2018-07-13T10:12:44.568Z,23.80
2018-07-13T10:15:13.660Z,24.00
2018-07-13T10:17:42.650Z,24.00
2018-07-13T10:20:11.669Z,24.20
2018-07-13T10:22:40.784Z,24.60
2018-07-13T10:25:09.961Z,24.80
2018-07-13T10:27:39.606Z,25.00
2018-07-13T10:30:11.947Z,25.10
2018-07-13T10:32:42.185Z,25.20
2018-07-13T10:35:11.628Z,25.20
2018-07-13T10:37:42.689Z,25.10
2018-07-13T10:40:11.905Z,25.20
2018-07-13T10:42:40.921Z,25.20
2018-07-13T10:45:10.071Z,25.20
2018-07-13T10:47:39.322Z,25.00
2018-07-13T10:50:08.379Z,25.00
2018-07-13T10:52:37.653Z,25.10
2018-07-13T10:55:06.658Z,25.20
2018-07-13T10:57:35.600Z,25.20
2018-07-13T11:02:33.978Z,25.10
2018-07-13T11:05:03.150Z,25.20
2018-07-13T11:07:32.247Z,25.20
2018-07-13T11:10:01.288Z,25.20
2018-07-13T11:12:30.315Z,25.20
2018-07-13T11:14:59.352Z,25.20
2018-07-13T11:17:28.343Z,25.30
2018-07-13T11:19:57.340Z,25.40
2018-07-13T11:22:26.337Z,25.30
2018-07-13T11:27:24.268Z,25.30
2018-07-13T11:29:53.680Z,25.20
2018-07-13T11:32:22.670Z,25.30
2018-07-13T11:34:51.897Z,25.30
2018-07-13T11:37:20.911Z,25.30
2018-07-13T11:39:49.896Z,25.50
2018-07-13T11:44:48.120Z,25.30
2018-07-13T11:47:17.127Z,25.20
2018-07-13T11:49:46.060Z,25.40
2018-07-13T11:54:43.633Z,25.50
2018-07-13T11:57:12.627Z,25.60
2018-07-13T12:02:10.100Z,25.20
2018-07-13T12:04:39.050Z,25.00
2018-07-13T12:07:08.380Z,25.00
2018-07-13T12:09:37.453Z,25.00
2018-07-13T12:12:06.581Z,25.10
2018-07-13T12:14:35.520Z,25.20
2018-07-13T12:17:05.238Z,25.30
2018-07-13T12:19:34.301Z,25.50
2018-07-13T12:22:03.369Z,25.70
2018-07-13T12:27:01.019Z,26.00
2018-07-13T12:29:30.054Z,25.90
2018-07-13T12:31:59.088Z,25.80
2018-07-13T12:34:28.117Z,25.60
2018-07-13T12:39:25.706Z,25.50
2018-07-13T12:41:55.055Z,25.40
2018-07-13T12:44:24.077Z,25.40
2018-07-13T12:49:21.652Z,25.40
2018-07-13T12:51:50.729Z,25.60
2018-07-13T12:54:19.940Z,25.50
2018-07-13T12:56:48.823Z,25.60
2018-07-13T12:59:17.783Z,25.70
2018-07-13T13:01:46.835Z,25.80
2018-07-13T13:04:15.803Z,25.90
2018-07-13T13:06:44.827Z,26.00
2018-07-13T13:09:13.828Z,26.00
2018-07-13T13:11:42.757Z,26.00
2018-07-13T13:14:11.747Z,26.00
2018-07-13T13:16:40.736Z,25.90
2018-07-13T13:19:10.604Z,25.90
2018-07-13T13:21:39.769Z,25.70
2018-07-13T13:24:08.785Z,25.60
2018-07-13T13:26:37.857Z,25.50
2018-07-13T13:31:35.416Z,25.40
2018-07-13T13:36:33.667Z,25.00
2018-07-13T13:39:02.745Z,25.10
2018-07-13T13:41:31.709Z,25.20
2018-07-13T13:44:00.685Z,25.30
2018-07-13T13:46:29.653Z,25.40
2018-07-13T13:48:58.639Z,25.50
2018-07-13T13:51:27.589Z,25.70
2018-07-13T13:53:56.580Z,25.80
2018-07-13T13:56:25.591Z,25.90
2018-07-13T13:58:54.555Z,26.00
2018-07-13T14:01:23.520Z,26.00
2018-07-13T14:03:52.511Z,26.10
2018-07-13T14:06:21.446Z,26.20
2018-07-13T14:08:50.527Z,26.30
2018-07-13T14:11:20.265Z,26.30
2018-07-13T14:13:49.326Z,26.50
2018-07-13T14:16:18.360Z,26.50
2018-07-13T14:18:47.408Z,26.40
2018-07-13T14:21:16.476Z,26.30
2018-07-13T14:23:45.639Z,26.20
2018-07-13T14:26:14.748Z,26.00
2018-07-13T14:28:43.751Z,25.90
2018-07-13T14:33:41.445Z,25.80
2018-07-13T14:36:10.508Z,25.70
2018-07-13T14:38:39.954Z,25.80
2018-07-13T14:41:09.096Z,25.90
2018-07-13T14:43:38.239Z,25.90
2018-07-13T14:46:07.336Z,26.10
2018-07-13T14:48:36.412Z,26.10
2018-07-13T14:53:34.059Z,26.10
2018-07-13T14:56:03.167Z,26.00
2018-07-13T14:58:32.166Z,26.00
2018-07-13T15:03:29.762Z,26.00
2018-07-13T15:05:58.785Z,26.10
2018-07-13T15:08:27.843Z,26.10
2018-07-13T15:10:57.293Z,26.00
2018-07-13T15:13:26.934Z,25.90
2018-07-13T15:15:55.982Z,25.70
2018-07-13T15:18:24.947Z,25.60
2018-07-13T15:20:54.120Z,25.60
2018-07-13T15:23:23.876Z,25.60
2018-07-13T15:25:53.327Z,25.60
2018-07-13T15:30:51.200Z,25.70
2018-07-13T15:35:52.008Z,25.80
2018-07-13T15:38:21.100Z,25.80
2018-07-13T15:40:50.360Z,25.80
2018-07-13T15:43:20.180Z,25.80
2018-07-13T15:45:50.160Z,25.80
2018-07-13T15:48:19.282Z,25.80
2018-07-13T15:50:48.316Z,25.80
2018-07-13T15:53:17.401Z,25.80
2018-07-13T15:55:51.698Z,25.90
2018-07-13T15:58:21.537Z,25.80
2018-07-13T16:00:50.588Z,25.70
2018-07-13T16:03:19.632Z,25.70
2018-07-13T16:05:55.841Z,25.50
2018-07-13T16:08:26.619Z,25.50
2018-07-13T16:10:55.706Z,25.60
2018-07-13T16:13:24.771Z,25.60
2018-07-13T16:15:53.836Z,25.70
2018-07-13T16:20:52.108Z,25.70
2018-07-13T16:23:21.209Z,25.60
2018-07-13T16:25:50.333Z,25.50
2018-07-13T16:28:19.923Z,25.50
2018-07-13T16:33:21.122Z,25.40
2018-07-13T16:35:51.157Z,25.50
2018-07-13T16:38:22.830Z,25.50
2018-07-13T16:40:51.900Z,25.50
2018-07-13T16:43:20.921Z,25.50
2018-07-13T16:45:49.922Z,25.40
2018-07-13T16:50:47.537Z,25.40
2018-07-13T16:53:16.676Z,25.40
2018-07-13T16:55:47.319Z,25.40
2018-07-13T16:58:16.547Z,25.40
2018-07-13T17:00:45.577Z,25.30
2018-07-13T17:03:14.672Z,25.20
2018-07-13T17:05:43.730Z,25.00
2018-07-13T17:08:12.709Z,25.00
2018-07-13T17:10:41.731Z,24.90
2018-07-13T17:13:12.036Z,25.00
2018-07-13T17:15:41.062Z,24.90
2018-07-13T17:18:10.073Z,25.00
2018-07-13T17:20:39.274Z,25.00
2018-07-13T17:23:08.436Z,25.00
2018-07-13T17:25:37.582Z,25.00
2018-07-13T17:28:06.629Z,25.00
2018-07-13T17:30:35.670Z,24.90
2018-07-13T17:33:04.876Z,24.90
2018-07-13T17:35:33.937Z,24.90
2018-07-13T17:38:02.936Z,24.80
2018-07-13T17:43:00.654Z,24.90
2018-07-13T17:45:29.748Z,24.90
2018-07-13T17:47:58.792Z,24.90
2018-07-13T17:50:28.089Z,24.80
2018-07-13T17:52:57.132Z,24.70
2018-07-13T17:55:26.189Z,24.60
2018-07-13T18:00:23.805Z,24.30
2018-07-13T18:02:52.839Z,24.30
2018-07-13T18:05:21.864Z,24.30
2018-07-13T18:07:50.984Z,24.20
2018-07-13T18:10:20.049Z,24.20
2018-07-13T18:12:49.228Z,24.10
2018-07-13T18:17:46.669Z,23.90
2018-07-13T18:20:15.754Z,23.80
2018-07-13T18:22:44.841Z,23.90
2018-07-13T18:25:13.940Z,23.80
2018-07-13T18:27:43.011Z,23.80
2018-07-13T18:30:12.177Z,23.70
2018-07-13T18:32:41.247Z,23.50
2018-07-13T18:35:10.609Z,23.40
2018-07-13T18:37:39.646Z,23.20
2018-07-13T18:42:39.397Z,22.90
2018-07-13T18:45:08.464Z,22.80
2018-07-13T18:47:37.568Z,22.60
2018-07-13T18:50:06.748Z,22.50
2018-07-13T18:52:35.856Z,22.30
2018-07-13T18:57:33.478Z,22.00
2018-07-13T19:00:02.514Z,21.80
2018-07-13T19:02:31.565Z,21.70
2018-07-13T19:05:00.654Z,21.50
2018-07-13T19:07:29.756Z,21.30
2018-07-13T19:10:00.157Z,21.10
2018-07-13T19:12:44.020Z,21.00
2018-07-13T19:15:59.571Z,20.90
2018-07-13T19:21:58.562Z,20.50
2018-07-13T19:24:49.046Z,20.30
2018-07-13T19:34:02.458Z,20.10
2018-07-13T19:36:36.568Z,19.80
2018-07-13T19:39:08.285Z,19.70
2018-07-13T19:41:38.067Z,19.60
2018-07-13T19:44:07.349Z,19.40
2018-07-13T19:46:36.758Z,19.40
2018-07-13T19:49:05.873Z,19.20
2018-07-13T19:51:35.012Z,19.10
2018-07-13T19:54:05.184Z,19.00
2018-07-13T19:56:34.781Z,19.00
2018-07-13T19:59:04.089Z,18.90
2018-07-13T20:01:33.490Z,18.80
2018-07-13T20:04:03.402Z,18.70
2018-07-13T20:09:01.549Z,18.60
2018-07-13T20:11:31.103Z,18.50
2018-07-13T20:16:29.328Z,18.50
2018-07-13T20:18:58.637Z,18.40
2018-07-13T20:21:27.995Z,18.30
2018-07-13T20:23:57.703Z,18.20
2018-07-13T20:28:56.213Z,18.10
2018-07-13T20:31:25.763Z,18.00
2018-07-13T20:33:55.314Z,18.00
2018-07-13T20:36:25.180Z,17.90
2018-07-13T20:38:54.628Z,17.80
2018-07-13T20:43:52.691Z,17.70
2018-07-13T20:48:52.182Z,17.60
2018-07-13T20:51:22.382Z,17.50
2018-07-13T20:53:53.625Z,17.50
2018-07-13T20:56:23.227Z,17.50
2018-07-13T20:58:52.936Z,17.40
2018-07-13T21:01:22.450Z,17.30
2018-07-13T21:03:52.030Z,17.30
2018-07-13T21:06:21.939Z,17.20
2018-07-13T21:08:51.380Z,17.20
2018-07-13T21:11:20.858Z,17.20
2018-07-13T21:13:50.285Z,17.20
2018-07-13T21:16:21.332Z,17.20
2018-07-13T21:18:50.786Z,17.10
2018-07-13T21:21:20.378Z,17.00
2018-07-13T21:23:49.836Z,17.00
2018-07-13T21:26:19.388Z,17.00
2018-07-13T21:28:48.641Z,16.90
2018-07-13T21:31:18.661Z,16.90
2018-07-13T21:33:48.482Z,16.90
2018-07-13T21:36:17.946Z,16.80
2018-07-13T21:38:47.284Z,16.80
2018-07-13T21:41:16.445Z,16.70
2018-07-13T21:43:45.539Z,16.70
2018-07-13T21:46:14.574Z,16.70
2018-07-13T21:51:12.195Z,16.60
2018-07-13T21:53:42.147Z,16.50
2018-07-13T21:56:11.208Z,16.50
2018-07-13T21:58:40.212Z,16.50
2018-07-13T22:01:09.364Z,16.40
2018-07-13T22:03:39.084Z,16.40
2018-07-13T22:06:08.210Z,16.40
2018-07-13T22:08:37.300Z,16.30
2018-07-13T22:11:06.536Z,16.30
2018-07-13T22:16:04.266Z,16.30
2018-07-13T22:18:33.293Z,16.20
2018-07-13T22:21:02.380Z,16.10
2018-07-13T22:23:31.497Z,16.10
2018-07-13T22:26:00.616Z,16.10
2018-07-13T22:28:29.628Z,16.00
2018-07-13T22:30:58.760Z,16.00
2018-07-13T22:33:27.919Z,16.00
2018-07-13T22:35:56.936Z,16.00
2018-07-13T22:38:27.089Z,16.00
2018-07-13T22:40:56.152Z,16.00
2018-07-13T22:43:25.284Z,16.00
2018-07-13T22:48:22.928Z,16.00
2018-07-13T22:50:51.959Z,16.00
2018-07-13T22:53:21.066Z,16.00
2018-07-13T22:55:50.165Z,15.90
2018-07-13T22:58:19.165Z,15.90
2018-07-13T23:00:48.422Z,15.90
2018-07-13T23:03:17.345Z,15.80
2018-07-13T23:05:46.290Z,15.90
2018-07-13T23:08:15.916Z,15.80
2018-07-13T23:10:44.928Z,15.70
2018-07-13T23:13:13.880Z,15.70
2018-07-13T23:15:42.852Z,15.60
2018-07-13T23:18:11.872Z,15.60
2018-07-13T23:20:41.395Z,15.50
2018-07-13T23:23:10.394Z,15.40
2018-07-13T23:25:39.726Z,15.40
2018-07-13T23:28:08.710Z,15.40
2018-07-13T23:30:37.673Z,15.40
2018-07-13T23:33:06.816Z,15.30
2018-07-13T23:35:36.537Z,15.40
2018-07-13T23:38:05.839Z,15.30
2018-07-13T23:40:34.849Z,15.30
2018-07-13T23:43:04.721Z,15.30
2018-07-13T23:45:33.686Z,15.40
2018-07-13T23:48:02.684Z,15.30
2018-07-13T23:50:31.757Z,15.30
2018-07-13T23:53:00.757Z,15.20
2018-07-13T23:55:29.756Z,15.20
2018-07-13T23:57:58.753Z,15.20
